createdAt,value
2018-10-18T00:02:12.427Z,10.47
2018-10-18T00:04:42.929Z,8.20
2018-10-18T00:07:13.516Z,8.83
2018-10-18T00:09:44.078Z,7.60
2018-10-18T00:12:14.577Z,9.33
2018-10-18T00:14:44.944Z,10.43
2018-10-18T00:17:20.549Z,8.67
2018-10-18T00:19:51.457Z,7.87
2018-10-18T00:22:22.029Z,8.03
2018-10-18T00:24:52.589Z,7.70
2018-10-18T00:27:23.577Z,8.27
2018-10-18T00:29:53.915Z,8.53
2018-10-18T00:32:24.496Z,8.67
2018-10-18T00:34:55.117Z,9.37
2018-10-18T00:37:25.493Z,8.37
2018-10-18T00:39:56.052Z,9.63
2018-10-18T00:42:26.637Z,9.00
2018-10-18T00:44:57.213Z,8.47
2018-10-18T00:47:27.549Z,9.93
2018-10-18T00:49:58.131Z,8.97
2018-10-18T00:52:28.921Z,9.77
2018-10-18T00:54:59.475Z,9.40
2018-10-18T00:57:29.800Z,11.63
2018-10-18T01:00:00.184Z,8.47
2018-10-18T01:02:30.705Z,7.63
2018-10-18T01:05:01.016Z,8.20
2018-10-18T01:07:31.357Z,10.67
2018-10-18T01:10:02.133Z,7.47
2018-10-18T01:12:32.889Z,9.97
2018-10-18T01:15:03.269Z,10.73
2018-10-18T01:17:33.605Z,11.00
2018-10-18T01:20:04.133Z,8.80
2018-10-18T01:22:34.671Z,8.97
2018-10-18T01:25:05.846Z,8.70
2018-10-18T01:27:36.196Z,11.23
2018-10-18T01:30:07.294Z,9.27
2018-10-18T01:32:38.049Z,11.10
2018-10-18T01:35:08.403Z,10.53
2018-10-18T01:37:38.747Z,8.40
2018-10-18T01:40:09.072Z,9.10
2018-10-18T01:42:39.426Z,11.93
2018-10-18T01:45:09.752Z,7.70
2018-10-18T01:47:40.346Z,8.90
2018-10-18T01:50:11.184Z,8.77
2018-10-18T01:52:41.944Z,9.70
2018-10-18T01:55:12.257Z,7.60
2018-10-18T01:57:42.609Z,8.77
2018-10-18T02:00:13.018Z,9.17
2018-10-18T02:02:43.484Z,7.80
2018-10-18T02:05:14.338Z,7.17
2018-10-18T02:07:44.680Z,8.63
2018-10-18T02:10:15.000Z,8.50
2018-10-18T02:12:45.348Z,9.27
2018-10-18T02:15:15.666Z,6.90
2018-10-18T02:17:46.212Z,6.97
2018-10-18T02:20:16.785Z,8.17
2018-10-18T02:22:47.128Z,8.40
2018-10-18T02:25:17.782Z,7.57
2018-10-18T02:27:48.248Z,8.50
2018-10-18T02:30:18.923Z,7.53
2018-10-18T02:32:49.616Z,7.57
2018-10-18T02:35:19.941Z,8.20
2018-10-18T02:37:50.529Z,8.40
2018-10-18T02:40:20.848Z,8.77
2018-10-18T02:42:51.420Z,9.40
2018-10-18T02:45:21.763Z,9.87
2018-10-18T02:47:52.358Z,11.50
2018-10-18T02:50:22.669Z,7.60
2018-10-18T02:52:53.029Z,6.83
2018-10-18T02:55:23.351Z,7.83
2018-10-18T02:57:53.691Z,7.70
2018-10-18T03:00:24.029Z,9.87
2018-10-18T03:02:54.700Z,9.37
2018-10-18T03:05:25.036Z,7.70
2018-10-18T03:07:55.355Z,10.33
2018-10-18T03:10:25.935Z,7.97
2018-10-18T03:12:56.261Z,10.30
2018-10-18T03:15:26.843Z,11.20
2018-10-18T03:17:57.207Z,8.17
2018-10-18T03:20:27.525Z,7.30
2018-10-18T03:22:57.837Z,7.80
2018-10-18T03:25:28.189Z,7.73
2018-10-18T03:27:58.496Z,9.00
2018-10-18T03:30:28.830Z,8.93
2018-10-18T03:32:59.136Z,12.03
2018-10-18T03:35:29.458Z,9.37
2018-10-18T03:37:59.989Z,7.20
2018-10-18T03:40:30.543Z,7.37
2018-10-18T03:43:01.141Z,8.27
2018-10-18T03:45:31.829Z,7.37
2018-10-18T03:48:02.424Z,9.07
2018-10-18T03:50:32.750Z,7.43
2018-10-18T03:53:03.328Z,8.50
2018-10-18T03:55:33.913Z,7.87
2018-10-18T03:58:04.529Z,7.63
2018-10-18T04:00:34.873Z,9.87
2018-10-18T04:03:05.596Z,9.33
2018-10-18T04:05:35.941Z,6.67
2018-10-18T04:08:06.732Z,8.40
2018-10-18T04:10:37.083Z,8.77
2018-10-18T04:13:07.613Z,7.90
2018-10-18T04:15:38.397Z,6.30
2018-10-18T04:18:09.093Z,9.40
2018-10-18T04:20:39.529Z,11.30
2018-10-18T04:23:10.225Z,9.10
2018-10-18T04:25:40.900Z,9.13
2018-10-18T04:28:11.576Z,9.43
2018-10-18T04:30:42.194Z,9.33
2018-10-18T04:33:12.513Z,9.07
2018-10-18T04:35:43.085Z,8.63
2018-10-18T04:38:13.397Z,9.10
2018-10-18T04:40:43.787Z,9.67
2018-10-18T04:43:14.097Z,9.47
2018-10-18T04:45:44.467Z,8.63
2018-10-18T04:48:14.931Z,13.87
2018-10-18T04:50:45.438Z,9.07
2018-10-18T04:53:15.764Z,8.50
2018-10-18T04:55:46.374Z,9.27
2018-10-18T04:58:16.684Z,9.10
2018-10-18T05:00:47.056Z,8.73
2018-10-18T05:03:17.382Z,9.30
2018-10-18T05:05:54.213Z,9.93
2018-10-18T05:08:25.422Z,10.10
2018-10-18T05:10:56.198Z,9.97
2018-10-18T05:13:26.769Z,9.67
2018-10-18T05:15:57.157Z,9.67
2018-10-18T05:18:27.469Z,8.47
2018-10-18T05:20:58.209Z,7.80
2018-10-18T05:23:28.577Z,7.73
2018-10-18T05:25:59.182Z,8.00
2018-10-18T05:28:29.580Z,10.27
2018-10-18T05:30:59.945Z,8.33
2018-10-18T05:33:30.656Z,8.63
2018-10-18T05:36:01.496Z,8.93
2018-10-18T05:38:31.811Z,9.13
2018-10-18T05:41:02.187Z,11.03
2018-10-18T05:43:32.749Z,9.57
2018-10-18T05:46:03.115Z,10.73
2018-10-18T05:48:33.689Z,8.70
2018-10-18T05:51:04.025Z,9.17
2018-10-18T05:53:34.880Z,13.13
2018-10-18T05:56:05.408Z,8.50
2018-10-18T05:58:35.736Z,9.63
2018-10-18T06:01:07.162Z,9.00
2018-10-18T06:03:37.692Z,9.67
2018-10-18T06:06:08.284Z,8.70
2018-10-18T06:08:38.848Z,9.07
2018-10-18T06:11:29.059Z,6.90
2018-10-18T06:13:59.687Z,9.47
2018-10-18T06:16:30.028Z,9.53
2018-10-18T06:19:00.674Z,10.93
2018-10-18T06:21:31.590Z,7.00
2018-10-18T06:24:02.179Z,7.37
2018-10-18T06:26:32.585Z,9.63
2018-10-18T06:29:02.930Z,10.27
2018-10-18T06:31:33.701Z,9.33
2018-10-18T06:34:04.316Z,9.60
2018-10-18T06:36:34.640Z,9.80
2018-10-18T06:39:08.076Z,9.57
2018-10-18T06:41:39.890Z,12.33
2018-10-18T06:44:10.641Z,10.43
2018-10-18T06:46:41.202Z,10.37
2018-10-18T06:49:12.322Z,7.07
2018-10-18T06:51:43.211Z,9.83
2018-10-18T06:54:13.828Z,10.70
2018-10-18T06:56:51.373Z,10.17
2018-10-18T06:59:22.456Z,12.80
2018-10-18T07:01:53.481Z,9.83
2018-10-18T07:04:24.092Z,10.30
2018-10-18T07:06:55.131Z,18.37
2018-10-18T07:09:25.776Z,9.77
2018-10-18T07:11:56.360Z,12.27
2018-10-18T07:14:27.370Z,9.37
2018-10-18T07:16:58.306Z,9.53
2018-10-18T07:19:29.165Z,10.67
2018-10-18T07:21:59.554Z,8.30
2018-10-18T07:24:29.885Z,8.77
2018-10-18T07:27:00.512Z,10.17
2018-10-18T07:29:31.085Z,8.90
2018-10-18T07:32:01.666Z,9.37
2018-10-18T07:34:31.968Z,10.73
2018-10-18T07:37:02.293Z,8.33
2018-10-18T07:39:32.633Z,10.33
2018-10-18T07:42:03.042Z,11.83
2018-10-18T07:44:33.756Z,8.57
2018-10-18T07:47:04.454Z,8.87
2018-10-18T07:49:35.068Z,13.10
2018-10-18T07:52:05.488Z,13.73
2018-10-18T07:54:36.299Z,11.87
2018-10-18T07:57:07.377Z,12.13
2018-10-18T07:59:37.861Z,15.37
2018-10-18T08:02:08.628Z,14.03
2018-10-18T08:04:39.221Z,14.30
2018-10-18T08:07:09.836Z,11.83
2018-10-18T08:09:40.600Z,13.40
2018-10-18T08:12:11.005Z,14.73
2018-10-18T08:14:41.481Z,13.67
2018-10-18T08:17:12.280Z,11.23
2018-10-18T08:19:43.524Z,11.97
2018-10-18T08:22:14.196Z,11.50
2018-10-18T08:24:44.775Z,10.67
2018-10-18T08:27:15.593Z,11.03
2018-10-18T08:29:46.289Z,11.23
2018-10-18T08:32:16.959Z,12.10
2018-10-18T08:34:47.734Z,12.47
2018-10-18T08:37:18.175Z,12.93
2018-10-18T08:39:48.776Z,11.07
2018-10-18T08:42:19.577Z,9.93
2018-10-18T08:44:52.372Z,9.93
2018-10-18T08:47:23.685Z,10.43
2018-10-18T08:49:54.152Z,9.53
2018-10-18T08:52:24.648Z,12.13
2018-10-18T08:54:55.083Z,11.80
2018-10-18T08:57:25.852Z,13.73
2018-10-18T08:59:56.229Z,10.87
2018-10-18T09:02:26.762Z,10.20
2018-10-18T09:04:58.363Z,12.00
2018-10-18T09:07:29.534Z,12.63
2018-10-18T09:10:00.497Z,11.00
2018-10-18T09:12:31.499Z,10.87
2018-10-18T09:15:02.292Z,13.37
2018-10-18T09:17:32.916Z,10.43
2018-10-18T09:20:03.713Z,10.07
2018-10-18T09:22:34.458Z,11.37
2018-10-18T09:25:05.371Z,11.07
2018-10-18T09:27:35.939Z,10.67
2018-10-18T09:30:09.186Z,10.03
2018-10-18T09:32:39.809Z,10.07
2018-10-18T09:35:11.258Z,11.53
2018-10-18T09:37:42.777Z,10.67
2018-10-18T09:40:13.121Z,9.87
2018-10-18T09:42:43.524Z,12.83
2018-10-18T09:45:14.906Z,10.10
2018-10-18T09:47:49.861Z,12.00
2018-10-18T09:50:24.651Z,9.37
2018-10-18T09:52:56.457Z,10.83
2018-10-18T09:55:27.295Z,12.00
2018-10-18T09:57:58.067Z,11.47
2018-10-18T10:00:33.752Z,11.20
2018-10-18T10:03:15.458Z,12.60
2018-10-18T10:05:46.055Z,10.90
2018-10-18T10:08:17.025Z,11.07
2018-10-18T10:10:47.644Z,10.57
2018-10-18T10:13:19.600Z,11.13
2018-10-18T10:15:51.353Z,11.60
2018-10-18T10:18:21.795Z,10.57
2018-10-18T10:20:52.568Z,10.13
2018-10-18T10:23:22.921Z,10.70
2018-10-18T10:25:53.288Z,11.07
2018-10-18T10:28:23.612Z,10.50
2018-10-18T10:30:53.974Z,10.93
2018-10-18T10:33:24.810Z,11.40
2018-10-18T10:35:55.465Z,13.33
2018-10-18T10:38:26.064Z,11.03
2018-10-18T10:40:56.446Z,13.77
2018-10-18T10:43:27.242Z,10.73
2018-10-18T10:45:57.893Z,12.47
2018-10-18T10:48:28.438Z,10.03
2018-10-18T10:50:58.849Z,9.93
2018-10-18T10:53:31.336Z,13.13
2018-10-18T10:56:02.002Z,12.07
2018-10-18T10:58:32.724Z,10.20
2018-10-18T11:01:11.470Z,10.67
2018-10-18T11:03:42.676Z,9.53
2018-10-18T11:06:13.268Z,10.00
2018-10-18T11:08:43.805Z,9.47
2018-10-18T11:11:15.113Z,12.30
2018-10-18T11:13:45.469Z,12.60
2018-10-18T11:16:16.051Z,11.63
2018-10-18T11:18:46.366Z,12.27
2018-10-18T11:21:18.154Z,10.27
2018-10-18T11:23:48.869Z,9.53
2018-10-18T11:26:20.206Z,9.60
2018-10-18T11:28:50.979Z,8.97
2018-10-18T11:31:21.317Z,9.77
2018-10-18T11:33:51.900Z,11.70
2018-10-18T11:36:22.314Z,9.33
2018-10-18T11:38:52.673Z,10.37
2018-10-18T11:41:23.065Z,11.17
2018-10-18T11:43:53.444Z,9.57
2018-10-18T11:46:23.828Z,9.60
2018-10-18T11:48:54.220Z,9.90
2018-10-18T11:51:24.662Z,9.47
2018-10-18T11:53:55.168Z,11.03
2018-10-18T11:56:25.990Z,10.10
2018-10-18T11:58:56.619Z,9.10
2018-10-18T12:01:27.559Z,9.60
2018-10-18T12:03:58.928Z,9.50
2018-10-18T12:06:29.913Z,10.20
2018-10-18T12:09:01.400Z,9.53
2018-10-18T12:11:32.797Z,11.47
2018-10-18T12:14:03.866Z,12.60
2018-10-18T12:16:35.027Z,10.47
2018-10-18T12:19:05.778Z,10.07
2018-10-18T12:21:36.572Z,8.50
2018-10-18T12:24:07.364Z,9.47
2018-10-18T12:26:37.826Z,9.63
2018-10-18T12:29:08.534Z,15.50
2018-10-18T12:31:39.034Z,8.90
2018-10-18T12:34:09.837Z,10.67
2018-10-18T12:36:40.505Z,9.03
2018-10-18T12:39:11.198Z,12.27
2018-10-18T12:41:41.948Z,11.63
2018-10-18T12:44:12.432Z,8.20
2018-10-18T12:46:42.973Z,9.10
2018-10-18T12:49:13.337Z,10.20
2018-10-18T12:51:43.710Z,9.60
2018-10-18T12:54:14.102Z,11.77
2018-10-18T12:56:44.661Z,10.20
2018-10-18T12:59:15.058Z,9.63
2018-10-18T13:01:45.460Z,8.93
2018-10-18T13:04:15.998Z,10.07
2018-10-18T13:06:46.384Z,9.37
2018-10-18T13:09:17.213Z,9.80
2018-10-18T13:11:47.837Z,9.10
2018-10-18T13:14:18.501Z,9.70
2018-10-18T13:16:49.270Z,10.20
2018-10-18T13:19:19.914Z,10.50
2018-10-18T13:21:50.649Z,10.33
2018-10-18T13:24:21.420Z,9.80
2018-10-18T13:26:51.962Z,9.40
2018-10-18T13:29:22.301Z,8.87
2018-10-18T13:31:52.714Z,9.20
2018-10-18T13:34:23.252Z,8.87
2018-10-18T13:36:53.609Z,9.17
2018-10-18T13:39:23.999Z,10.37
2018-10-18T13:41:54.358Z,8.87
2018-10-18T13:44:24.989Z,10.10
2018-10-18T13:46:55.368Z,9.30
2018-10-18T13:49:26.093Z,10.97
2018-10-18T13:51:56.417Z,11.50
2018-10-18T13:54:27.195Z,9.50
2018-10-18T13:56:57.749Z,11.17
2018-10-18T14:00:42.513Z,9.13
2018-10-18T14:03:12.888Z,8.83
2018-10-18T14:05:43.284Z,8.13
2018-10-18T14:08:14.080Z,8.90
2018-10-18T14:10:44.797Z,8.80
2018-10-18T14:13:15.412Z,8.33
2018-10-18T14:15:45.974Z,8.03
2018-10-18T14:18:16.320Z,8.53
2018-10-18T14:20:46.630Z,8.40
2018-10-18T14:23:17.061Z,9.30
2018-10-18T14:25:47.737Z,8.53
2018-10-18T14:28:18.324Z,8.77
2018-10-18T14:30:48.907Z,8.70
2018-10-18T14:33:19.713Z,9.30
2018-10-18T14:35:50.812Z,12.47
2018-10-18T14:38:21.299Z,10.90
2018-10-18T14:40:51.983Z,11.63
2018-10-18T14:43:22.543Z,13.20
2018-10-18T14:45:53.333Z,10.30
2018-10-18T14:48:24.620Z,11.47
2018-10-18T14:50:55.433Z,10.70
2018-10-18T14:53:25.820Z,10.33
2018-10-18T14:55:56.432Z,10.77
2018-10-18T14:58:27.105Z,13.03
2018-10-18T15:00:59.399Z,12.13
2018-10-18T15:03:30.064Z,12.37
2018-10-18T15:06:04.680Z,12.87
2018-10-18T15:08:38.296Z,12.07
2018-10-18T15:11:08.673Z,11.73
2018-10-18T15:13:39.253Z,13.07
2018-10-18T15:16:09.632Z,12.47
2018-10-18T15:18:40.252Z,15.20
2018-10-18T15:21:10.897Z,13.27
2018-10-18T15:23:41.293Z,16.40
2018-10-18T15:26:11.995Z,16.70
2018-10-18T15:28:42.501Z,13.80
2018-10-18T15:31:13.064Z,16.90
2018-10-18T15:33:46.548Z,14.60
2018-10-18T15:36:17.186Z,15.37
2018-10-18T15:38:47.700Z,15.17
2018-10-18T15:41:18.241Z,18.47
2018-10-18T15:43:49.130Z,14.07
2018-10-18T15:46:20.114Z,16.00
2018-10-18T15:48:53.408Z,14.93
2018-10-18T15:51:23.720Z,15.40
2018-10-18T15:53:54.318Z,14.77
2018-10-18T15:56:33.936Z,13.23
2018-10-18T15:59:05.678Z,12.87
2018-10-18T16:01:37.038Z,14.27
2018-10-18T16:04:08.733Z,12.97
2018-10-18T16:06:40.571Z,16.70
2018-10-18T16:09:13.829Z,13.20
2018-10-18T16:11:45.309Z,17.40
2018-10-18T16:14:17.441Z,13.67
2018-10-18T16:16:48.974Z,17.57
2018-10-18T16:19:20.379Z,14.20
2018-10-18T16:21:51.592Z,14.83
2018-10-18T16:24:24.475Z,17.00
2018-10-18T16:26:55.977Z,15.80
2018-10-18T16:29:27.458Z,16.33
2018-10-18T16:31:59.451Z,13.60
2018-10-18T16:34:30.544Z,17.87
2018-10-18T16:37:02.055Z,17.03
2018-10-18T16:39:33.203Z,16.17
2018-10-18T16:42:05.198Z,17.50
2018-10-18T16:44:36.463Z,18.37
2018-10-18T16:47:07.981Z,17.63
2018-10-18T16:49:38.410Z,15.97
2018-10-18T16:52:08.817Z,15.93
2018-10-18T16:54:39.463Z,15.27
2018-10-18T16:57:09.964Z,18.13
2018-10-18T16:59:40.577Z,19.90
2018-10-18T17:02:11.047Z,17.17
2018-10-18T17:04:41.858Z,17.30
2018-10-18T17:07:13.057Z,18.33
2018-10-18T17:09:43.565Z,20.07
2018-10-18T17:12:14.010Z,16.27
2018-10-18T17:14:45.223Z,19.07
2018-10-18T17:17:15.625Z,21.07
2018-10-18T17:19:46.313Z,20.23
2018-10-18T17:22:16.698Z,17.57
2018-10-18T17:24:47.490Z,20.50
2018-10-18T17:27:18.147Z,19.73
2018-10-18T17:29:50.654Z,22.70
2018-10-18T17:32:21.609Z,19.60
2018-10-18T17:34:52.124Z,18.57
2018-10-18T17:37:22.819Z,18.20
2018-10-18T17:39:53.380Z,17.57
2018-10-18T17:42:24.053Z,20.60
2018-10-18T17:44:54.462Z,19.10
2018-10-18T17:47:25.004Z,21.03
2018-10-18T17:49:55.528Z,19.77
2018-10-18T17:52:26.032Z,21.77
2018-10-18T17:54:56.637Z,19.13
2018-10-18T17:57:26.977Z,18.73
2018-10-18T17:59:57.654Z,20.90
2018-10-18T18:02:28.139Z,20.57
2018-10-18T18:04:58.530Z,19.30
2018-10-18T18:07:28.865Z,19.23
2018-10-18T18:09:59.509Z,18.00
2018-10-18T18:12:30.022Z,20.13
2018-10-18T18:15:00.658Z,19.63
2018-10-18T18:17:31.252Z,21.27
2018-10-18T18:20:03.121Z,17.97
2018-10-18T18:22:38.054Z,19.67
2018-10-18T18:25:10.545Z,19.47
2018-10-18T18:27:41.225Z,19.43
2018-10-18T18:30:14.680Z,23.47
2018-10-18T18:32:45.022Z,20.13
2018-10-18T18:35:15.377Z,20.37
2018-10-18T18:37:45.963Z,21.40
2018-10-18T18:40:16.741Z,20.00
2018-10-18T18:42:47.076Z,22.13
2018-10-18T18:45:21.563Z,21.40
2018-10-18T18:47:52.061Z,20.87
2018-10-18T18:50:22.442Z,20.27
2018-10-18T18:52:53.113Z,22.00
2018-10-18T18:55:23.656Z,19.67
2018-10-18T18:57:54.093Z,20.43
2018-10-18T19:00:24.534Z,20.27
2018-10-18T19:02:55.048Z,20.10
2018-10-18T19:05:25.873Z,22.60
2018-10-18T19:07:56.351Z,20.73
2018-10-18T19:10:27.178Z,22.03
2018-10-18T19:12:57.748Z,21.60
2018-10-18T19:15:28.378Z,20.47
2018-10-18T19:17:58.972Z,20.90
2018-10-18T19:20:29.357Z,20.97
2018-10-18T19:22:59.747Z,19.13
2018-10-18T19:25:30.500Z,19.60
2018-10-18T19:28:01.077Z,24.20
2018-10-18T19:30:31.512Z,19.47
2018-10-18T19:33:01.900Z,18.13
2018-10-18T19:35:32.318Z,20.27
2018-10-18T19:38:02.715Z,21.03
2018-10-18T19:40:33.545Z,20.30
2018-10-18T19:43:04.177Z,20.37
2018-10-18T19:45:34.880Z,21.87
2018-10-18T19:48:05.394Z,20.20
2018-10-18T19:50:35.829Z,19.97
2018-10-18T19:53:06.925Z,19.70
2018-10-18T19:55:37.458Z,25.63
2018-10-18T19:58:07.909Z,21.20
2018-10-18T20:00:38.420Z,20.33
2018-10-18T20:03:08.830Z,18.87
2018-10-18T20:05:39.290Z,22.57
2018-10-18T20:08:09.789Z,21.03
2018-10-18T20:10:40.590Z,20.10
2018-10-18T20:13:11.213Z,19.07
2018-10-18T20:15:41.632Z,24.27
2018-10-18T20:18:12.295Z,21.37
2018-10-18T20:20:42.858Z,19.67
2018-10-18T20:23:13.489Z,19.13
2018-10-18T20:25:43.967Z,19.83
2018-10-18T20:28:14.497Z,21.33
2018-10-18T20:30:44.885Z,20.20
2018-10-18T20:33:15.363Z,21.50
2018-10-18T20:35:45.944Z,21.63
2018-10-18T20:38:16.484Z,22.50
2018-10-18T20:40:47.126Z,21.30
2018-10-18T20:43:17.500Z,19.20
2018-10-18T20:45:47.953Z,20.40
2018-10-18T20:48:18.765Z,19.40
2018-10-18T20:50:49.142Z,18.53
2018-10-18T20:53:19.496Z,20.37
2018-10-18T20:55:50.084Z,20.93
2018-10-18T20:58:20.690Z,19.40
2018-10-18T21:00:51.204Z,19.67
2018-10-18T21:03:21.817Z,19.03
2018-10-18T21:05:52.162Z,19.57
2018-10-18T21:08:22.746Z,21.53
2018-10-18T21:10:53.106Z,21.10
2018-10-18T21:13:23.461Z,20.47
2018-10-18T21:15:53.828Z,19.40
2018-10-18T21:18:24.437Z,22.53
2018-10-18T21:20:55.062Z,20.00
2018-10-18T21:23:25.581Z,20.10
2018-10-18T21:25:56.176Z,20.57
2018-10-18T21:28:26.785Z,20.40
2018-10-18T21:30:57.146Z,19.43
2018-10-18T21:33:27.501Z,22.17
2018-10-18T21:35:57.833Z,17.83
2018-10-18T21:38:28.196Z,21.27
2018-10-18T21:40:58.900Z,19.77
2018-10-18T21:43:29.653Z,19.27
2018-10-18T21:46:00.120Z,20.27
2018-10-18T21:48:30.953Z,19.47
2018-10-18T21:51:01.379Z,20.17
2018-10-18T21:53:32.184Z,22.30
2018-10-18T21:56:02.627Z,19.60
2018-10-18T21:58:33.018Z,18.57
2018-10-18T22:01:03.623Z,20.40
2018-10-18T22:03:34.005Z,18.73
2018-10-18T22:06:04.457Z,18.17
2018-10-18T22:08:34.854Z,18.67
2018-10-18T22:11:05.580Z,19.63
2018-10-18T22:13:36.176Z,21.33
2018-10-18T22:16:06.816Z,18.93
2018-10-18T22:18:37.217Z,18.37
2018-10-18T22:21:07.863Z,18.73
2018-10-18T22:23:38.436Z,20.00
2018-10-18T22:26:08.803Z,22.13
2018-10-18T22:28:39.183Z,17.73
2018-10-18T22:31:09.799Z,20.70
2018-10-18T22:33:40.688Z,18.83
2018-10-18T22:36:11.316Z,16.73
2018-10-18T22:38:41.729Z,20.00
2018-10-18T22:41:12.403Z,18.20
2018-10-18T22:43:42.936Z,19.60
2018-10-18T22:46:13.285Z,16.23
2018-10-18T22:48:43.660Z,20.13
2018-10-18T22:51:14.248Z,19.03
2018-10-18T22:53:44.792Z,17.60
2018-10-18T22:56:15.156Z,17.50
2018-10-18T22:58:45.552Z,15.80
2018-10-18T23:01:16.118Z,15.67
2018-10-18T23:03:46.732Z,19.73
2018-10-18T23:06:17.312Z,22.37
2018-10-18T23:08:48.101Z,18.73
2018-10-18T23:11:18.448Z,15.87
2018-10-18T23:13:48.805Z,19.13
2018-10-18T23:16:19.174Z,18.37
2018-10-18T23:18:49.765Z,18.80
2018-10-18T23:21:20.132Z,20.27
2018-10-18T23:23:50.712Z,19.00
2018-10-18T23:26:21.321Z,18.60
2018-10-18T23:28:51.657Z,18.53
2018-10-18T23:31:22.034Z,18.30
2018-10-18T23:33:52.541Z,16.33
2018-10-18T23:36:23.129Z,17.23
2018-10-18T23:38:53.482Z,19.70
2018-10-18T23:41:24.012Z,19.20
2018-10-18T23:43:54.357Z,17.33
2018-10-18T23:46:24.910Z,16.87
2018-10-18T23:48:55.298Z,17.97
2018-10-18T23:51:25.651Z,17.97
2018-10-18T23:53:55.981Z,18.33
2018-10-18T23:56:26.596Z,18.43
2018-10-18T23:58:56.966Z,16.70
